Weather reports worldwide

Advertisment
Zinnwald-Georgenfeld, Germany (10582): temperature & dewpoint: 03.04.2020 23:00:00 - 09.04.2020 23:00:00 (CEST)Zinnwald-Georgenfeld, Germany (10582): temperature 5cm & temperature -5cm: 03.04.2020 23:00:00 - 09.04.2020 23:00:00 (CEST)Zinnwald-Georgenfeld, Germany (10582): temperature -20cm & temperature -100cm: 03.04.2020 23:00:00 - 09.04.2020 23:00:00 (CEST)Zinnwald-Georgenfeld, Germany (10582): wind speed & gusts: 03.04.2020 23:00:00 - 09.04.2020 23:00:00 (CEST)Zinnwald-Georgenfeld, Germany (10582): wind direction: 03.04.2020 23:00:00 - 09.04.2020 23:00:00 (CEST)Zinnwald-Georgenfeld, Germany (10582): visibility: 03.04.2020 23:00:00 - 09.04.2020 23:00:00 (CEST)Zinnwald-Georgenfeld, Germany (10582): sunshine duration: 03.04.2020 23:00:00 - 09.04.2020 23:00:00 (CEST)Zinnwald-Georgenfeld, Germany (10582): precipitation: 03.04.2020 23:00:00 - 09.04.2020 23:00:00 (CEST)
Date & Time tt [°C] td [°C] tt 5cm [°C] tt -5cm [°C] tt -20cm [°C] tt -100cm [°C] ff [km/h] ff [kn] fx [km/h] fx [kn] dd vv [km] sd [min] rr [mm]
09.04.2020 23:00:00 7,2 2,6 5,8 6,3 8,9 4,1 23 12 29 16 N 69 0 0,0
09.04.2020 22:00:00 7,6 3,1 6,0 7,2 9,0 4,1 22 12 32 17 N 57 0 0,0
09.04.2020 21:00:00 8,3 3,3 7,0 8,4 9,1 4,1 21 12 31 17 NNW 58 0 0,0
09.04.2020 20:00:00 9,3 3,9 8,1 10,6 9,0 4,1 21 11 34 18 NNW 47 2 0,0
09.04.2020 19:00:00 11,3 5,0 10,8 13,6 8,8 4,1 21 11 32 18 NNW 31 58 0,0
09.04.2020 18:00:00 13,0 5,2 13,5 16,1 8,4 4,0 21 11 39 21 NNW 30 59 0,0
09.04.2020 17:00:00 14,3 5,3 16,9 18,1 8,0 4,0 19 10 35 19 NW 27 60 0,0
09.04.2020 16:00:00 15,0 4,6 18,0 19,1 7,4 4,0 19 10 38 20 NNW 31 60 0,0
09.04.2020 15:00:00 15,2 2,0 18,7 18,9 6,9 4,0 20 11 35 19 NW 32 60 0,0
09.04.2020 14:00:00 15,5 1,9 18,7 18,9 6,3 4,0 21 11 40 22 NW 35 60 0,0
09.04.2020 13:00:00 16,1 1,7 18,7 17,6 5,9 4,0 13 7 32 17 NW 35 59 0,0
09.04.2020 12:00:00 15,5 0,4 18,7 15,5 5,5 4,0 20 11 33 18 NNW 56 60 0,0
09.04.2020 11:00:00 14,7 -0,8 18,3 12,7 5,4 4,0 16 9 28 15 NNW 41 60 0,0
09.04.2020 10:00:00 13,3 -2,2 15,6 9,2 5,3 3,9 16 9 27 15 NW 42 60 0,0
09.04.2020 09:00:00 12,2 -2,1 13,8 5,7 5,5 3,9 14 7 27 14 NW 42 60 0,0
09.04.2020 08:00:00 10,7 -3,4 11,2 2,2 5,7 3,9 10 6 18 10 NW 51 52 0,0
09.04.2020 07:00:00 8,7 -5,1 4,0 0,2 6,0 3,9 14 8 16 8 NW - 0 0,0
09.04.2020 06:00:00 8,3 -4,9 -0,2 0,4 6,3 3,9 12 7 14 8 WNW 47 0 0,0
09.04.2020 05:00:00 9,1 -5,2 1,5 0,8 6,5 3,9 12 6 15 8 WNW 54 0 0,0
09.04.2020 04:00:00 10,0 -7,5 2,5 1,1 6,8 3,9 11 6 14 8 W 62 0 0,0
09.04.2020 03:00:00 9,5 -8,0 0,2 1,7 7,1 3,9 10 6 14 8 WSW 69 0 0,0
09.04.2020 02:00:00 9,2 -8,7 2,6 2,2 7,4 3,8 9 5 12 7 S 59 0 0,0
09.04.2020 01:00:00 9,1 -8,9 2,4 2,8 7,7 3,8 9 5 12 7 S 64 0 0,0
09.04.2020 00:00:00 8,8 -9,1 4,6 3,6 8,0 3,8 12 6 16 9 SSE 74 0 0,0
08.04.2020 23:00:00 9,2 -9,1 3,9 4,5 8,3 3,8 11 6 18 10 SSE 67 0 0,0
08.04.2020 22:00:00 10,0 -8,7 5,7 5,6 8,5 3,8 10 6 22 12 S 65 0 0,0
08.04.2020 21:00:00 10,0 -7,8 5,9 7,3 8,5 3,8 11 6 21 11 S 72 0 0,0
08.04.2020 20:00:00 10,9 -6,6 8,0 10,0 8,4 3,8 17 9 21 12 S 72 8 0,0
08.04.2020 19:00:00 13,6 -5,5 12,8 14,1 8,1 3,8 15 8 24 13 SSE 63 60 0,0
08.04.2020 18:00:00 14,7 -4,3 16,3 16,8 7,7 3,7 14 8 27 15 S 69 60 0,0
08.04.2020 17:00:00 15,1 -5,2 17,6 18,6 7,2 3,7 15 8 31 17 S 51 60 0,0
08.04.2020 16:00:00 15,1 -5,2 18,4 19,5 6,6 3,7 16 8 29 15 SE 66 60 0,0
08.04.2020 15:00:00 14,9 -6,6 18,8 19,3 6,1 3,7 19 11 29 16 S 68 60 0,0
08.04.2020 14:00:00 14,5 -6,4 18,7 17,6 5,7 3,7 19 10 36 19 SSE 75 60 0,0
08.04.2020 13:00:00 13,4 -7,7 17,1 15,3 5,3 3,7 26 14 42 23 SSE 47 60 0,0
08.04.2020 12:00:00 13,2 -7,5 16,7 12,9 5,1 3,7 24 13 48 26 SE 53 60 0,0
08.04.2020 11:00:00 12,0 -8,1 14,7 9,6 5,0 3,7 31 17 49 27 SE 56 60 0,0
08.04.2020 10:00:00 11,6 -8,3 13,5 7,3 5,1 3,7 24 13 36 19 SE 52 60 0,0
08.04.2020 09:00:00 9,9 -7,5 11,0 4,4 5,3 3,6 20 11 30 16 SE 72 60 0,0
08.04.2020 08:00:00 7,9 -5,2 7,7 1,3 5,5 3,6 14 8 19 11 SE 52 51 0,0
08.04.2020 07:00:00 6,3 -4,0 0,8 0,9 5,7 3,6 6 4 12 6 SSE 48 0 0,0
08.04.2020 06:00:00 6,4 -3,7 0,7 0,9 6,0 3,6 9 5 14 8 SSE 51 0 0,0
08.04.2020 05:00:00 7,4 -4,3 3,0 1,7 6,2 3,6 11 6 16 9 SSE 53 0 0,0
08.04.2020 04:00:00 8,1 -2,5 3,8 2,8 6,4 3,6 14 8 23 12 SE 46 0 0,0
08.04.2020 03:00:00 9,2 -2,9 6,4 3,7 6,6 3,6 19 11 24 13 ESE 49 0 0,0
08.04.2020 02:00:00 8,1 4,8 5,5 4,4 6,8 3,6 12 6 17 9 ENE 28 0 0,0
08.04.2020 01:00:00 8,8 4,5 6,7 4,7 7,0 3,6 16 9 19 11 ENE 31 0 0,0
08.04.2020 00:00:00 9,1 4,0 6,8 5,0 7,2 3,6 14 8 16 9 NE 29 0 0,0
07.04.2020 23:00:00 9,8 4,3 6,3 5,4 7,3 3,6 11 6 13 7 NE 34 0 0,0
07.04.2020 22:00:00 10,0 5,0 6,6 6,4 7,4 3,5 9 5 16 9 NNE 36 0 0,0
07.04.2020 21:00:00 10,9 5,4 8,5 7,6 7,5 3,5 11 6 16 9 N 35 0 0,0
07.04.2020 20:00:00 11,7 4,6 9,6 9,1 7,4 3,5 11 6 15 8 N 32 2 0,0
07.04.2020 19:00:00 13,4 4,3 12,7 11,6 7,2 3,5 12 7 24 13 N 33 60 0,0
07.04.2020 18:00:00 14,4 3,5 15,3 13,2 7,0 3,5 13 7 26 14 NNE 27 60 0,0
07.04.2020 17:00:00 14,7 2,6 16,4 13,7 6,6 3,5 14 8 26 14 NNE 32 38 0,0
07.04.2020 16:00:00 14,9 2,9 15,8 15,7 6,1 3,5 11 6 23 12 NNE 33 41 0,0
07.04.2020 15:00:00 15,0 1,1 16,0 15,9 5,6 3,5 12 7 26 14 NE 35 27 0,0
07.04.2020 14:00:00 15,8 3,7 20,5 16,9 5,0 3,5 10 5 18 10 N 29 41 0,0
07.04.2020 13:00:00 15,6 0,8 19,9 17,7 4,5 3,5 13 7 21 11 SSE 40 60 0,0
07.04.2020 12:00:00 14,6 -0,4 18,4 15,9 4,1 3,5 11 6 17 9 SSE 40 60 0,0
07.04.2020 11:00:00 13,9 -0,3 17,2 12,9 3,8 3,5 14 8 20 11 SSE 48 60 0,0
07.04.2020 10:00:00 13,3 0,0 15,5 8,9 3,8 3,4 5 3 20 11 S 44 60 0,0
07.04.2020 09:00:00 11,3 -0,9 12,7 4,2 3,9 3,4 14 7 19 11 WSW 37 60 0,0
07.04.2020 08:00:00 6,6 -3,4 7,1 0,6 4,1 3,4 11 6 15 8 S 44 48 0,0
07.04.2020 07:00:00 4,3 -4,4 1,0 0,5 4,3 3,4 11 6 17 9 S 44 0 0,0
07.04.2020 06:00:00 3,8 -4,2 0,8 -0,1 4,5 3,4 16 9 20 11 S 44 0 0,0
07.04.2020 05:00:00 4,7 -3,6 1,2 0,1 4,8 3,4 17 9 20 11 S 42 0 0,0
07.04.2020 04:00:00 4,8 -3,3 1,6 0,5 5,0 3,4 18 10 20 11 S 42 0 0,0
07.04.2020 03:00:00 5,1 -3,3 1,4 1,0 5,2 3,4 16 9 19 10 SSE 46 0 0,0
07.04.2020 02:00:00 6,1 -2,6 2,3 1,6 5,4 3,4 13 7 21 11 S 42 0 0,0
07.04.2020 01:00:00 6,7 -2,0 4,2 2,1 5,7 3,4 18 10 25 13 S 42 0 0,0
07.04.2020 00:00:00 7,6 -1,2 5,3 2,8 5,9 3,4 19 10 24 13 S 40 0 0,0
06.04.2020 23:00:00 8,4 -0,9 5,7 3,5 6,0 3,4 17 9 25 14 SSE 37 0 0,0
06.04.2020 22:00:00 9,9 -0,9 7,4 4,2 6,2 3,4 19 10 26 14 S 39 0 0,0
06.04.2020 21:00:00 10,0 -2,3 6,4 5,3 6,2 3,4 15 8 21 11 S 48 0 0,0
06.04.2020 20:00:00 10,9 -2,0 7,7 7,6 6,0 3,4 16 8 29 15 S 50 6 0,0
06.04.2020 19:00:00 13,2 -1,5 11,8 10,9 5,8 3,4 17 9 33 18 S 58 60 0,0
06.04.2020 18:00:00 14,2 -2,3 14,7 13,2 5,4 3,4 21 11 40 22 S 60 60 0,0
06.04.2020 17:00:00 14,4 -2,3 16,1 14,4 4,9 3,4 29 15 42 23 S 51 60 0,0
06.04.2020 16:00:00 14,4 -2,0 17,2 15,3 4,4 3,3 26 14 46 25 SSE 40 60 0,0
06.04.2020 15:00:00 14,7 -2,3 17,7 15,2 3,9 3,3 29 15 49 26 S 47 60 0,0
06.04.2020 14:00:00 13,1 -1,2 16,1 13,8 3,5 3,3 34 18 54 29 S 39 60 0,0
06.04.2020 13:00:00 11,7 -0,8 14,9 12,5 3,1 3,3 31 17 52 28 SSE 39 60 0,0
06.04.2020 12:00:00 10,1 -1,2 12,8 9,9 2,9 3,3 38 20 68 37 SSE 43 60 0,0
06.04.2020 11:00:00 8,2 -2,2 10,2 7,1 2,8 3,3 47 25 68 37 SSE 39 60 0,0
06.04.2020 10:00:00 6,5 -2,9 7,9 3,6 2,9 3,3 47 26 61 33 SSE 32 60 0,0
06.04.2020 09:00:00 4,9 -3,7 5,5 0,4 3,0 3,3 44 24 59 32 SSE 39 60 0,0
06.04.2020 08:00:00 3,5 -4,1 3,2 0,3 3,1 3,3 38 21 56 30 S 43 48 0,0
06.04.2020 07:00:00 2,5 -4,2 1,0 0,4 3,3 3,3 38 20 52 28 S 41 0 0,0
06.04.2020 06:00:00 2,7 -4,3 1,2 0,4 3,4 3,3 39 21 54 29 S 38 0 0,0
06.04.2020 05:00:00 2,6 -4,1 1,1 0,3 3,6 3,3 40 21 55 30 S 39 0 0,0
06.04.2020 04:00:00 3,2 -4,0 1,6 -0,3 3,8 3,3 46 25 62 33 S 39 0 0,0
06.04.2020 03:00:00 3,6 -4,0 1,9 0,0 4,0 3,3 41 22 61 33 S 40 0 0,0
06.04.2020 02:00:00 4,1 -4,1 2,4 0,4 4,3 3,3 44 24 59 32 SSE 44 0 0,0
06.04.2020 01:00:00 4,6 -4,3 2,8 0,7 4,5 3,3 45 24 63 34 SSE 43 0 0,0
06.04.2020 00:00:00 5,3 -4,5 3,3 1,1 4,7 3,3 43 23 69 38 SSE 44 0 0,0
05.04.2020 23:00:00 5,8 -5,0 3,9 1,4 5,0 3,3 39 21 54 29 SSE 43 0 0,0
05.04.2020 22:00:00 6,4 -5,9 4,6 2,0 5,1 3,3 29 16 47 25 SSE 47 0 0,0
05.04.2020 21:00:00 6,4 -5,9 4,1 3,0 5,2 3,3 18 10 30 16 SE 58 0 0,0
05.04.2020 20:00:00 6,8 -4,8 4,4 5,0 5,1 3,3 16 9 31 17 SE 58 4 0,0
05.04.2020 19:00:00 8,5 -4,4 7,2 8,2 4,9 3,3 21 11 39 21 SE 55 60 0,0
05.04.2020 18:00:00 9,0 -4,1 9,4 10,7 4,6 3,3 23 12 36 20 SSE 51 60 0,0
05.04.2020 17:00:00 9,4 -3,3 10,6 12,5 4,1 3,3 22 12 37 20 ESE 44 60 0,0
05.04.2020 16:00:00 9,3 -2,9 11,4 13,3 3,6 3,3 23 12 43 23 ESE 37 60 0,0
05.04.2020 15:00:00 9,0 -2,9 11,7 13,5 3,1 3,3 21 12 42 23 SE 42 60 0,0
05.04.2020 14:00:00 8,5 -2,5 11,1 12,8 2,7 3,2 23 12 39 21 SSE 53 60 0,0
05.04.2020 13:00:00 7,5 -2,0 10,1 10,7 2,4 3,2 23 12 42 23 SE 41 60 0,0
05.04.2020 12:00:00 6,1 -3,4 8,1 7,9 2,3 3,2 29 16 45 25 SSE 43 60 0,0
05.04.2020 11:00:00 5,1 -3,4 7,2 2,4 2,3 3,2 28 15 44 24 SSE 34 60 0,0
05.04.2020 10:00:00 3,6 -3,5 4,7 0,2 2,4 3,2 29 15 42 23 SSE 33 60 0,0
05.04.2020 09:00:00 2,6 -3,9 3,1 0,2 2,5 3,2 26 14 40 21 SSE 38 60 0,0
05.04.2020 08:00:00 1,4 -3,8 1,1 0,2 2,6 3,2 23 12 35 19 SSE 32 44 0,0
05.04.2020 07:00:00 0,2 -4,1 -1,7 0,2 2,7 3,2 12 7 21 11 SE 31 0 0,0
05.04.2020 06:00:00 0,6 -4,0 -1,5 0,3 2,9 3,2 12 6 24 13 SSE 29 0 0,0
05.04.2020 05:00:00 1,3 -3,8 -0,4 0,3 3,0 3,2 19 10 27 14 SSE 32 0 0,0
05.04.2020 04:00:00 1,6 -3,6 -0,2 0,4 3,1 3,2 18 10 27 15 SSE 30 0 0,0
05.04.2020 03:00:00 1,9 -3,2 0,0 0,5 3,3 3,2 19 11 29 16 SSE 31 0 0,0
05.04.2020 02:00:00 2,3 -2,9 0,4 0,6 3,5 3,2 14 7 19 11 SE 29 0 0,0
05.04.2020 01:00:00 1,9 -2,7 0,6 0,7 3,7 3,2 14 8 18 10 E 27 0 0,0
05.04.2020 00:00:00 1,8 -2,4 0,0 0,8 3,9 3,2 12 7 17 9 ENE 24 0 0,0
04.04.2020 23:00:00 1,8 -1,9 0,1 0,8 4,1 3,2 14 7 18 10 ENE 21 0 0,0
04.04.2020 22:00:00 1,8 -2,2 -0,3 0,8 4,3 3,2 14 7 16 9 NE 23 0 0,0
04.04.2020 21:00:00 2,3 -2,0 0,6 2,0 4,4 3,2 11 6 15 8 NE 25 0 0,0
04.04.2020 20:00:00 2,7 -1,5 0,6 3,9 4,3 3,2 11 6 14 8 NNE 23 3 0,0
04.04.2020 19:00:00 4,4 -1,0 3,8 6,7 4,2 3,2 10 6 15 8 NE 22 45 0,0
04.04.2020 18:00:00 4,7 -0,5 5,0 7,8 4,0 3,2 11 6 17 9 NE 23 10 0,0
04.04.2020 17:00:00 5,0 -0,5 6,0 9,1 3,6 3,2 11 6 21 11 NNE 24 3 0,0
04.04.2020 16:00:00 4,9 -0,3 6,3 10,2 3,2 3,2 11 6 19 10 NE 22 1 0,0
04.04.2020 15:00:00 5,9 -1,2 7,7 12,4 2,7 3,2 9 5 19 11 NW 27 16 0,0
04.04.2020 14:00:00 5,8 -0,9 8,3 12,3 2,3 3,2 11 6 23 12 NNW 28 28 0,0
04.04.2020 13:00:00 4,9 -0,7 7,8 9,1 2,0 3,2 8 4 17 9 NW 27 1 0,0
04.04.2020 12:00:00 4,0 -1,1 5,2 7,8 1,8 3,2 10 6 17 9 NW 24 3 0,0
04.04.2020 11:00:00 4,4 -1,1 6,8 8,0 1,6 3,2 3 1 11 6 ENE 28 29 0,0
04.04.2020 10:00:00 2,3 0,0 3,7 3,4 1,6 3,2 9 5 21 11 W 12 8 0,0
04.04.2020 09:00:00 1,9 0,4 2,2 0,3 1,6 3,2 5 3 12 6 W 8 0 0,0
04.04.2020 08:00:00 1,5 -0,6 1,4 0,2 1,7 3,2 6 3 11 6 SSW 16 0 0,0
04.04.2020 07:00:00 0,6 -0,4 0,0 0,2 1,7 3,2 9 5 11 6 WSW 4,3 0 0,0
04.04.2020 06:00:00 0,6 -0,6 -1,5 0,2 1,8 3,2 7 4 13 7 W 6 0 0,0
04.04.2020 05:00:00 0,8 -2,9 -0,6 0,2 1,8 3,2 5 3 9 5 S 33 0 0,0
04.04.2020 04:00:00 0,6 -2,0 -2,4 0,3 1,9 3,2 3 2 6 3 SE 26 0 0,0
04.04.2020 03:00:00 0,9 -0,8 -0,5 0,3 1,9 3,2 3 1 17 9 SE 14 0 0,0
04.04.2020 02:00:00 1,2 -0,3 0,4 0,5 2,0 3,2 11 6 14 8 NW 8 0 0,0
04.04.2020 01:00:00 1,4 -0,3 0,8 0,4 2,0 3,2 7 4 15 8 NW 10 0 0,0
04.04.2020 00:00:00 1,5 -0,2 0,8 0,4 2,1 3,2 8 4 14 8 WNW 10 0 0,0
03.04.2020 23:00:00 1,3 -0,2 0,6 0,4 2,2 3,2 7 4 15 8 W 9 0 0,0

tt = temperature
td = dewpoint
tt 5cm = temperature 5cm
tt -5cm = temperature -5cm
tt -20cm = temperature -20cm
tt -100cm = temperature -100cm
ff = wind speed
fx = gusts
dd = wind direction
vv = visibility
sd = sunshine duration
rr = precipitation

Next stations